Latest Weather Observations for Snowtown

IDS60801

Issued at 10:35 am CDT Friday 28 November 2014 (issued every 30 minutes, with the page automatically refreshed every 10 minutes)

About weather observations | Map of weather stations | Latest weather observations for SA | Other Formats
Station Details ID: 021133 Name: RAYVILLE PARK Lat: -33.77 Lon: 138.22 Height: 109.1 m
Data from the previous 72 hours. | See also: Recent months at Snowtown
Date/Time
CDT
Temp
°C
App
Temp
°C
Dew
Point
Rel
Hum
%
Delta-T
°C
Wind Press
QNH
hPa
Press
MSL
hPa
Rain
since 9 am
mm
Dir
 
Spd
km/h
Gust
km/h
Spd
kts
Gust
kts
28/10:30am 27.9 24.7 2.9 20 12.4 NE 9 13 5 7 1018.5 1018.2 0.0
28/10:00am 25.9 23.1 3.2 23 11.2 E 7 11 4 6 1018.9 1018.6 0.0
28/09:30am 24.2 21.7 4.6 28 9.8 SE 7 15 4 8 1019.3 1019.0 0.0
28/09:00am 22.5 19.8 3.6 29 9.2 E 7 13 4 7 1019.6 1019.3 0.0
28/08:30am 19.8 17.5 4.7 37 7.3 SW 6 7 3 4 1019.8 1019.6 0.0
28/08:00am 18.3 16.6 8.3 52 5.2 S 7 11 4 6 1019.8 1019.6 0.0
28/07:30am 16.3 14.7 10.2 67 3.2 SSW 9 13 5 7 1019.7 1019.4 0.0
28/07:00am 15.0 13.6 11.0 77 2.1 SW 9 13 5 7 1019.5 1019.2 0.0
28/06:30am 13.0 10.5 9.6 80 1.7 WSW 13 17 7 9 1019.4 1019.1 0.0
28/06:00am 11.3 8.4 8.0 80 1.6 WSW 13 15 7 8 1019.2 1018.9 0.0
28/05:30am 10.8 7.7 5.6 70 2.4 SW 11 13 6 7 1018.8 1018.5 0.0
28/05:00am 10.8 7.6 5.1 68 2.6 SW 11 13 6 7 1018.7 1018.4 0.0
28/04:30am 11.1 7.7 5.8 70 2.5 SW 13 15 7 8 1018.5 1018.2 0.0
28/04:00am 11.2 7.9 6.5 73 2.2 SW 13 15 7 8 1018.3 1018.0 0.0
28/03:30am 11.2 8.3 6.7 74 2.1 SW 11 13 6 7 1018.4 1018.1 0.0
28/03:00am 11.3 8.8 6.6 73 2.2 SW 9 11 5 6 1018.3 1018.0 0.0
28/02:30am 11.8 9.9 6.7 71 2.4 SW 6 7 3 4 1018.4 1018.1 0.0
28/02:00am 12.1 9.4 7.2 72 2.4 SW 11 11 6 6 1018.6 1018.3 0.0
28/01:30am 12.5 10.0 8.2 75 2.1 SW 11 13 6 7 1018.8 1018.5 0.0
28/01:00am 13.0 10.9 9.6 80 1.7 SW 11 15 6 8 1019.1 1018.8 0.0
28/12:30am 14.2 12.1 11.0 81 1.7 SW 13 15 7 8 1019.4 1019.1 0.0
28/12:00am 15.6 13.5 12.4 81 1.8 SSW 15 20 8 11 1019.8 1019.6 0.0
 
Date/Time
CDT
Temp
°C
App
Temp
°C
Dew
Point
Rel
Hum
%
Delta-T
°C
Wind Press
QNH
hPa
Press
MSL
hPa
Rain
since 9 am
mm
Dir
 
Spd
km/h
Gust
km/h
Spd
kts
Gust
kts
27/11:30pm 16.1 13.7 12.5 79 2.0 SSW 17 20 9 11 1020.0 1019.8 0.0
27/11:00pm 17.1 14.2 12.4 74 2.6 SSW 19 24 10 13 1020.1 1019.9 0.0
27/10:30pm 17.7 14.3 12.4 71 2.9 SSW 22 28 12 15 1020.2 1020.0 0.0
27/10:00pm 18.1 15.1 12.5 70 3.1 SSW 20 30 11 16 1020.3 1020.1 0.0
27/09:30pm 18.5 15.2 12.9 70 3.2 S 22 30 12 16 1020.1 1019.9 0.0
27/09:00pm 18.7 15.5 13.1 70 3.2 S 22 30 12 16 1020.0 1019.8 0.0
27/08:30pm 19.3 15.9 12.6 65 3.8 S 22 32 12 17 1020.0 1019.8 0.0
27/08:00pm 20.5 16.2 12.0 58 4.8 S 26 39 14 21 1019.7 1019.4 0.0
27/07:30pm 22.0 16.2 10.8 49 6.2 S 32 44 17 24 1019.5 1019.2 0.0
27/07:00pm 23.3 17.3 10.0 43 7.3 S 32 48 17 26 1019.1 1018.8 0.0
27/06:43pm 24.0 18.9 10.7 43 7.4 S 28 46 15 25 1018.9 1018.6 0.0
27/06:30pm 24.2 18.4 11.5 45 7.2 S 33 50 18 27 1018.8 1018.5 0.0
27/06:00pm 25.2 19.5 11.7 43 7.7 SSW 33 44 18 24 1018.4 1018.1 0.0
27/05:30pm 26.1 19.3 10.7 38 8.7 SSW 37 46 20 25 1018.3 1018.0 0.0
27/05:00pm 26.5 20.1 10.6 37 9.0 SSW 35 48 19 26 1018.5 1018.2 0.0
27/04:30pm 27.7 21.2 10.4 34 9.8 SSW 35 48 19 26 1018.6 1018.3 0.0
27/04:00pm 28.1 22.3 9.4 31 10.4 SSW 30 43 16 23 1018.6 1018.3 0.0
27/03:30pm 28.4 22.3 9.6 31 10.5 SSW 32 39 17 21 1018.9 1018.6 0.0
27/03:00pm 29.4 23.5 7.3 25 11.9 SSW 28 35 15 19 1019.1 1018.8 0.0
27/02:30pm 29.0 24.6 7.6 26 11.6 S 20 41 11 22 1019.4 1019.1 0.0
27/02:00pm 30.0 25.7 5.3 21 13.0 S 17 28 9 15 1019.8 1019.6 0.0
27/01:30pm 28.9 24.6 5.1 22 12.3 SSE 17 33 9 18 1020.3 1020.1 0.0
27/01:00pm 28.5 25.1 6.0 24 11.9 ESE 13 20 7 11 1020.5 1020.3 0.0
27/12:30pm 27.8 24.9 6.6 26 11.2 SE 11 30 6 16 1020.9 1020.7 0.0
27/12:00pm 28.1 24.1 6.8 26 11.3 SE 17 24 9 13 1021.2 1021.0 0.0
27/11:30am 27.1 24.4 7.5 29 10.5 ENE 11 32 6 17 1021.4 1021.2 0.0
27/11:00am 26.4 22.9 7.4 30 10.1 NE 15 20 8 11 1021.8 1021.6 0.0
27/10:30am 24.8 21.9 8.3 35 8.8 SE 13 22 7 12 1022.0 1021.8 0.0
27/10:00am 24.0 21.9 9.6 40 7.9 ESE 11 20 6 11 1022.3 1022.1 0.0
27/09:30am 21.5 19.2 10.6 50 6.0 ESE 13 19 7 10 1022.8 1022.5 0.0
27/09:00am 19.3 17.7 10.3 56 4.8 ESE 9 13 5 7 1023.1 1022.8 0.0
27/08:30am 18.3 17.5 10.9 62 4.0 S 6 7 3 4 1023.1 1022.8 0.0
27/08:00am 16.3 15.4 10.8 70 2.9 SSW 6 7 3 4 1023.2 1022.9 0.0
27/07:30am 14.3 12.5 10.9 80 1.8 SW 11 13 6 7 1023.0 1022.7 0.0
27/07:00am 12.5 11.5 10.9 90 0.8 WSW 7 9 4 5 1023.0 1022.7 0.0
27/06:30am 10.2 8.4 9.3 94 0.4 WSW 9 13 5 7 1022.9 1022.6 0.0
27/06:00am 8.9 6.7 7.8 93 0.5 WSW 9 11 5 6 1022.7 1022.4 0.0
27/05:30am 9.5 7.4 8.3 92 0.6 SW 9 11 5 6 1022.2 1022.0 0.0
27/05:00am 9.9 7.5 8.8 93 0.5 SW 11 15 6 8 1022.0 1021.8 0.0
27/04:30am 9.5 7.4 8.1 91 0.7 SW 9 11 5 6 1021.8 1021.6 0.0
27/04:00am 10.1 7.3 8.7 91 0.7 SW 13 13 7 7 1021.7 1021.5 0.0
27/03:30am 10.6 8.3 8.9 89 0.8 SW 11 13 6 7 1021.5 1021.3 0.0
27/03:00am 11.6 8.9 8.8 83 1.4 SW 13 17 7 9 1021.5 1021.3 0.0
27/02:30am 12.7 9.9 9.9 83 1.4 SSW 15 19 8 10 1021.7 1021.5 0.0
27/02:00am 12.7 9.9 9.9 83 1.4 SSW 15 19 8 10 1022.0 1021.8 0.0
27/01:30am 13.0 9.7 9.6 80 1.7 SW 17 19 9 10 1022.2 1022.0 0.0
27/01:00am 13.0 10.0 9.1 77 2.0 SSW 15 20 8 11 1022.5 1022.2 0.0
27/12:30am 13.6 10.1 8.7 72 2.5 SSW 17 22 9 12 1022.5 1022.2 0.0
27/12:00am 14.3 10.7 8.5 68 2.9 SSW 17 22 9 12 1022.5 1022.2 0.0
 
Date/Time
CDT
Temp
°C
App
Temp
°C
Dew
Point
Rel
Hum
%
Delta-T
°C
Wind Press
QNH
hPa
Press
MSL
hPa
Rain
since 9 am
mm
Dir
 
Spd
km/h
Gust
km/h
Spd
kts
Gust
kts
26/11:30pm 14.8 11.2 8.3 65 3.3 SSW 17 20 9 11 1022.5 1022.2 0.0
26/11:00pm 15.8 12.2 8.5 62 3.7 S 17 22 9 12 1022.2 1022.0 0.0
26/10:30pm 15.9 12.5 9.3 65 3.4 S 17 22 9 12 1022.1 1021.9 0.0
26/10:00pm 16.7 12.8 10.8 68 3.2 S 22 30 12 16 1021.7 1021.5 0.0
26/09:30pm 16.9 12.8 11.6 71 2.9 S 24 37 13 20 1021.3 1021.1 0.0
26/09:00pm 17.2 13.3 12.1 72 2.8 S 24 37 13 20 1021.1 1020.9 0.0
26/08:30pm 17.5 13.6 12.2 71 2.9 S 24 35 13 19 1021.0 1020.8 0.0
26/08:00pm 18.0 13.3 12.0 68 3.3 S 28 37 15 20 1021.0 1020.8 0.0
26/07:30pm 18.9 14.1 11.5 62 4.1 S 28 37 15 20 1020.8 1020.6 0.0
26/07:00pm 19.9 14.8 10.6 55 5.1 S 28 41 15 22 1020.6 1020.4 0.0
26/06:30pm 20.9 15.7 10.1 50 5.8 S 28 39 15 21 1020.3 1020.1 0.0
26/06:00pm 21.7 15.7 10.2 48 6.3 S 32 44 17 24 1019.9 1019.7 0.0
26/05:30pm 22.5 16.0 9.0 42 7.2 S 33 43 18 23 1019.9 1019.7 0.0
26/05:00pm 23.4 17.5 9.0 40 7.8 S 30 41 16 22 1020.0 1019.8 0.0
26/04:30pm 24.1 18.2 7.7 35 8.7 S 28 43 15 23 1020.2 1020.0 0.0
26/04:00pm 24.3 19.0 7.0 33 9.1 S 24 35 13 19 1020.4 1020.2 0.0
26/03:30pm 24.1 18.2 7.3 34 8.8 S 28 39 15 21 1020.4 1020.2 0.0
26/03:00pm 25.0 19.0 7.2 32 9.4 S 28 39 15 21 1020.5 1020.3 0.0
26/02:30pm 25.7 19.7 5.3 27 10.4 S 26 41 14 22 1020.6 1020.4 0.0
26/02:00pm 25.6 21.1 2.3 22 11.3 S 15 24 8 13 1020.8 1020.6 0.0
26/01:30pm 23.9 18.6 2.1 24 10.4 ESE 19 24 10 13 1021.3 1021.1 0.0
26/01:00pm 23.2 18.0 3.7 28 9.5 S 20 28 11 15 1021.8 1021.6 0.0
26/12:30pm 23.0 18.1 4.0 29 9.3 SSE 19 26 10 14 1022.1 1021.9 0.0
26/12:00pm 21.2 16.3 3.9 32 8.3 SSE 19 26 10 14 1022.7 1022.4 0.0
26/11:30am 22.0 17.8 5.8 35 8.1 SSE 17 28 9 15 1023.0 1022.7 0.0
26/11:00am 20.5 17.1 5.7 38 7.4 SSE 13 20 7 11 1023.3 1023.0 0.0
26/10:30am 19.7 15.7 6.8 43 6.5 S 17 22 9 12 1023.7 1023.4 0.0
26/10:00am 18.4 15.4 7.8 50 5.4 S 13 20 7 11 1023.7 1023.4 0.0
26/09:30am 17.0 14.4 7.9 55 4.6 S 11 17 6 9 1023.7 1023.4 0.0
26/09:00am 16.2 14.6 8.2 59 4.1 S 6 11 3 6 1023.7 1023.4 0.0
26/08:30am 14.3 13.8 8.0 66 3.1 CALM 0 0 0 0 1023.4 1023.1 0.0
26/08:00am 13.1 12.7 8.4 73 2.4 CALM 0 0 0 0 1023.2 1022.9 0.0
26/07:30am 11.6 11.3 8.8 83 1.4 CALM 0 0 0 0 1023.0 1022.7 0.0
26/07:00am 10.1 9.2 9.2 94 0.4 SW 4 6 2 3 1022.6 1022.3 0.0
26/06:30am 7.5 5.0 6.6 94 0.4 SW 9 11 5 6 1022.3 1022.1 0.0
26/06:00am 6.7 4.0 5.7 93 0.4 SW 9 11 5 6 1022.1 1021.9 0.0
26/05:30am 6.7 4.0 5.5 92 0.5 SW 9 11 5 6 1021.9 1021.7 0.0
26/05:00am 7.6 5.4 6.4 92 0.6 SW 7 9 4 5 1021.7 1021.5 0.0
26/04:30am 7.7 5.5 6.3 91 0.6 SW 7 9 4 5 1021.6 1021.4 0.0
26/04:00am 7.8 5.3 6.4 91 0.6 SW 9 11 5 6 1021.7 1021.5 0.0
26/03:30am 8.3 5.5 6.8 90 0.7 SW 11 13 6 7 1021.7 1021.5 0.0
26/03:00am 8.4 6.0 6.9 90 0.7 SW 9 11 5 6 1021.6 1021.4 0.0
26/02:30am 8.9 6.2 7.2 89 0.8 SW 11 11 6 6 1021.7 1021.5 0.0
26/02:00am 9.0 6.2 7.1 88 0.9 SW 11 13 6 7 1021.9 1021.7 0.0
26/01:30am 9.4 7.0 7.2 86 1.0 SW 9 13 5 7 1022.1 1021.9 0.0
26/01:00am 9.8 7.4 7.2 84 1.2 SW 9 11 5 6 1022.1 1021.9 0.0
26/12:30am 9.9 7.2 7.2 83 1.3 SW 11 13 6 7 1022.2 1022.0 0.0
26/12:00am 10.0 7.6 6.9 81 1.5 SW 9 13 5 7 1022.5 1022.2 0.0
 
Date/Time
CDT
Temp
°C
App
Temp
°C
Dew
Point
Rel
Hum
%
Delta-T
°C
Wind Press
QNH
hPa
Press
MSL
hPa
Rain
since 9 am
mm
Dir
 
Spd
km/h
Gust
km/h
Spd
kts
Gust
kts
25/11:30pm 10.7 7.9 6.8 77 1.8 SSW 11 13 6 7 1022.7 1022.4 0.0
25/11:00pm 12.2 9.3 6.7 69 2.6 SSW 11 15 6 8 1022.9 1022.6 0.0
25/10:30pm 13.2 10.0 7.0 66 3.0 S 13 17 7 9 1023.0 1022.7 0.0
25/10:00pm 14.3 10.4 7.1 62 3.5 S 17 20 9 11 1022.8 1022.5 0.0
25/09:30pm 14.8 10.7 6.4 57 4.1 SSW 17 20 9 11 1022.7 1022.4 0.0
25/09:00pm 15.4 11.2 5.9 53 4.6 S 17 20 9 11 1022.2 1022.0 0.0
25/08:30pm 16.5 11.8 6.1 50 5.1 S 20 32 11 17 1022.1 1021.9 0.0
25/08:00pm 17.4 11.9 6.0 47 5.6 S 24 32 13 17 1021.7 1021.5 0.0
25/07:30pm 18.6 12.5 6.4 45 6.1 S 28 37 15 20 1021.6 1021.4 0.0
25/07:00pm 19.6 13.4 6.3 42 6.7 S 28 37 15 20 1021.2 1021.0 0.0
25/06:30pm 20.3 14.0 5.9 39 7.2 S 28 39 15 21 1020.8 1020.6 0.0
25/06:00pm 21.3 14.1 4.8 34 8.1 S 32 37 17 20 1020.4 1020.2 0.0
25/05:30pm 22.6 16.4 4.2 30 9.0 S 26 43 14 23 1020.3 1020.1 0.0
25/05:00pm 23.7 17.4 3.6 27 9.8 S 26 35 14 19 1020.2 1020.0 0.0
25/04:47pm 23.2 16.5 3.7 28 9.5 S 28 41 15 22 1020.1 1019.9 0.0
25/04:30pm 24.2 19.6 1.8 23 10.6 SSE 15 22 8 12 1020.2 1020.0 0.0
25/04:00pm 24.1 18.6 1.7 23 10.6 S 20 26 11 14 1020.4 1020.2 0.0
25/03:30pm 24.5 19.7 2.6 24 10.6 ENE 17 30 9 16 1020.7 1020.5 0.0
25/03:00pm 23.2 17.7 2.1 25 10.0 SE 20 28 11 15 1021.0 1020.8 0.0
25/02:30pm 23.0 18.9 2.5 26 9.8 S 13 20 7 11 1021.4 1021.2 0.0
25/02:00pm 23.4 19.5 3.4 27 9.7 ENE 13 19 7 10 1021.5 1021.3 0.0
25/01:30pm 21.7 17.9 1.9 27 9.2 SSE 11 22 6 12 1021.8 1021.6 0.0
25/01:00pm 22.3 18.9 3.9 30 9.0 SE 11 19 6 10 1022.2 1022.0 0.0
25/12:30pm 22.3 17.5 4.4 31 8.8 SE 19 30 10 16 1022.5 1022.2 0.0
25/12:00pm 21.3 17.4 3.5 31 8.5 SSE 13 22 7 12 1022.7 1022.4 0.0
25/11:30am 20.5 16.3 3.7 33 8.0 SSE 15 28 8 15 1022.9 1022.6 0.0
25/11:00am 19.9 15.7 4.0 35 7.6 SSE 15 22 8 12 1023.0 1022.7 0.0

Other Formats:

Comma delimited format used in spreadsheet applications
http://www.bom.gov.au/fwo/IDS60801/IDS60801.95670.axf

JavaScript Object Notation format (JSON) in row-major order
http://www.bom.gov.au/fwo/IDS60801/IDS60801.95670.json